createdAt,value
2024-03-05T00:00:22.908Z,97665.72
2024-03-05T00:05:24.933Z,97657.38
2024-03-05T00:10:26.568Z,97662.19
2024-03-05T00:15:28.403Z,97662.84
2024-03-05T00:20:30.074Z,97664.50
2024-03-05T00:25:31.774Z,97671.63
2024-03-05T00:30:33.434Z,97667.91
2024-03-05T00:35:35.310Z,97669.56
2024-03-05T00:40:36.950Z,97671.16
2024-03-05T00:45:38.570Z,97670.19
2024-03-05T00:50:41.080Z,97670.56
2024-03-05T00:55:42.796Z,97675.34
2024-03-05T01:00:44.547Z,97687.47
2024-03-05T01:05:46.668Z,97673.13
2024-03-05T01:10:48.336Z,97676.88
2024-03-05T01:15:50.001Z,97689.84
2024-03-05T01:20:51.571Z,97681.78
2024-03-05T01:25:53.257Z,97686.56
2024-03-05T01:30:55.670Z,97695.28
2024-03-05T01:35:57.893Z,97700.97
2024-03-05T01:40:59.536Z,97697.56
2024-03-05T01:46:01.345Z,97690.28
2024-03-05T01:51:03.301Z,97696.16
2024-03-05T01:56:06.036Z,97694.25
2024-03-05T02:01:08.305Z,97692.31
2024-03-05T02:06:12.155Z,97696.72
2024-03-05T02:11:14.820Z,97699.56
2024-03-05T02:16:17.060Z,97705.22
2024-03-05T02:21:22.364Z,97702.00
2024-03-05T02:26:25.424Z,97704.38
2024-03-05T02:31:27.247Z,97708.25
2024-03-05T02:36:28.854Z,97706.81
2024-03-05T02:41:30.524Z,97717.78
2024-03-05T02:46:32.299Z,97715.22
2024-03-05T02:51:33.942Z,97718.72
2024-03-05T02:56:35.625Z,97727.72
2024-03-05T03:01:37.944Z,97739.13
2024-03-05T03:06:40.894Z,97739.50
2024-03-05T03:11:43.147Z,97731.56
2024-03-05T03:16:45.349Z,97740.50
2024-03-05T03:21:47.107Z,97743.63
2024-03-05T03:26:49.902Z,97748.34
2024-03-05T03:31:51.624Z,97742.66
2024-03-05T03:36:54.742Z,97751.78
2024-03-05T03:41:56.581Z,97752.88
2024-03-05T03:46:58.348Z,97759.47
2024-03-05T03:52:00.775Z,97760.03
2024-03-05T03:57:02.346Z,97764.22
2024-03-05T04:02:05.015Z,97770.06
2024-03-05T04:07:07.620Z,97768.00
2024-03-05T04:12:09.415Z,97771.31
2024-03-05T04:17:11.020Z,97778.03
2024-03-05T04:22:15.373Z,97788.19
2024-03-05T04:27:19.744Z,97787.34
2024-03-05T04:32:22.072Z,97793.16
2024-03-05T04:37:23.715Z,97794.69
2024-03-05T04:42:26.596Z,97806.66
2024-03-05T04:47:28.226Z,97811.44
2024-03-05T04:52:32.733Z,97809.00
2024-03-05T04:57:35.701Z,97797.09
2024-03-05T05:02:37.312Z,97806.13
2024-03-05T05:07:38.957Z,97811.47
2024-03-05T05:12:41.130Z,97814.53
2024-03-05T05:17:42.853Z,97825.16
2024-03-05T05:22:45.633Z,97828.09
2024-03-05T05:27:50.778Z,97825.56
2024-03-05T05:32:53.382Z,97837.56
2024-03-05T05:37:55.291Z,97846.66
2024-03-05T05:42:56.936Z,97840.63
2024-03-05T05:47:59.479Z,97846.38
2024-03-05T05:53:01.573Z,97849.31
2024-03-05T05:58:05.478Z,97853.34
2024-03-05T06:03:12.312Z,97856.41
2024-03-05T06:08:16.005Z,97861.81
2024-03-05T06:13:17.774Z,97864.47
2024-03-05T06:18:19.513Z,97874.91
2024-03-05T06:23:21.340Z,97873.63
2024-03-05T06:28:23.003Z,97879.63
2024-03-05T06:33:24.796Z,97880.16
2024-03-05T06:38:26.428Z,97892.56
2024-03-05T06:43:40.013Z,97892.28
2024-03-05T06:48:49.068Z,97888.69
2024-03-05T06:54:09.267Z,97904.16
2024-03-05T06:59:11.692Z,97908.25
2024-03-05T07:04:13.552Z,97915.88
2024-03-05T07:09:15.143Z,97924.16
2024-03-05T07:14:17.275Z,97929.72
2024-03-05T07:19:18.936Z,97929.56
2024-03-05T07:24:20.535Z,97937.16
2024-03-05T07:29:22.180Z,97940.63
2024-03-05T07:34:23.916Z,97944.50
2024-03-05T07:39:25.990Z,97949.22
2024-03-05T07:44:28.055Z,97945.06
2024-03-05T07:49:29.797Z,97951.41
2024-03-05T07:54:31.540Z,97953.00
2024-03-05T07:59:33.377Z,97953.47
2024-03-05T08:04:35.119Z,97958.56
2024-03-05T08:09:37.963Z,97952.63
2024-03-05T08:14:39.576Z,97944.31
2024-03-05T08:19:42.666Z,97957.25
2024-03-05T08:24:44.334Z,97962.06
2024-03-05T08:29:46.355Z,97965.00
2024-03-05T08:34:48.134Z,97960.97
2024-03-05T08:39:51.305Z,97969.56
2024-03-05T08:44:53.149Z,97975.16
2024-03-05T08:49:55.196Z,97973.94
2024-03-05T08:54:57.601Z,97983.03
2024-03-05T09:00:13.164Z,97989.84
2024-03-05T09:05:22.724Z,97982.63
2024-03-05T09:10:24.456Z,97980.34
2024-03-05T09:15:27.105Z,97988.91
2024-03-05T09:20:28.789Z,97995.19
2024-03-05T09:25:31.541Z,97991.44
2024-03-05T09:30:35.012Z,97998.44
2024-03-05T09:35:37.171Z,98011.72
2024-03-05T09:40:41.479Z,98020.53
2024-03-05T09:45:46.132Z,98021.59
2024-03-05T09:50:49.908Z,98023.94
2024-03-05T09:55:54.021Z,98022.38
2024-03-05T10:00:55.738Z,98024.84
2024-03-05T10:05:57.996Z,98021.63
2024-03-05T10:11:04.972Z,98019.69
2024-03-05T10:16:17.558Z,98018.41
2024-03-05T10:21:23.628Z,98003.34
2024-03-05T10:26:28.516Z,98016.03
2024-03-05T10:31:30.428Z,98017.66
2024-03-05T10:36:37.497Z,98021.66
2024-03-05T10:41:47.448Z,98014.00
2024-03-05T10:46:56.405Z,98019.59
2024-03-05T10:52:00.967Z,98007.69
2024-03-05T10:57:02.608Z,98022.25
2024-03-05T11:02:06.542Z,98017.13
2024-03-05T11:07:08.642Z,98014.38
2024-03-05T11:12:17.831Z,98014.69
2024-03-05T11:17:20.957Z,98019.06
2024-03-05T11:22:24.949Z,98016.19
2024-03-05T11:27:29.357Z,98016.63
2024-03-05T11:32:35.643Z,98025.53
2024-03-05T11:38:07.412Z,98011.59
2024-03-05T11:43:09.038Z,98009.38
2024-03-05T11:48:12.657Z,98015.78
2024-03-05T11:53:14.892Z,98019.59
2024-03-05T11:58:16.588Z,98016.84
2024-03-05T12:03:21.057Z,98007.91
2024-03-05T12:08:26.098Z,98008.22
2024-03-05T12:13:28.556Z,98013.13
2024-03-05T12:18:30.397Z,98019.16
2024-03-05T12:23:41.601Z,98018.63
2024-03-05T12:28:44.926Z,98020.13
2024-03-05T12:33:47.138Z,98022.13
2024-03-05T12:38:48.799Z,98005.47
2024-03-05T12:43:57.091Z,98013.09
2024-03-05T12:48:59.906Z,98016.50
2024-03-05T12:54:08.971Z,98019.94
2024-03-05T12:59:20.835Z,98020.44
2024-03-05T13:04:22.530Z,98028.41
2024-03-05T13:09:24.369Z,98025.09
2024-03-05T13:14:27.195Z,98020.84
2024-03-05T13:19:29.202Z,98022.34
2024-03-05T13:24:32.438Z,98024.16
2024-03-05T13:29:34.043Z,98018.50
2024-03-05T13:34:35.727Z,98031.97
2024-03-05T13:39:37.390Z,98033.25
2024-03-05T13:44:39.448Z,98027.41
2024-03-05T13:49:41.110Z,98020.72
2024-03-05T13:54:42.778Z,98008.41
2024-03-05T13:59:44.948Z,98014.34
2024-03-05T14:04:48.385Z,98006.94
2024-03-05T14:09:50.557Z,98015.13
2024-03-05T14:14:52.194Z,98005.97
2024-03-05T14:19:53.957Z,98021.19
2024-03-05T14:24:55.750Z,98025.28
2024-03-05T14:29:57.801Z,98028.81
2024-03-05T14:34:59.865Z,98034.22
2024-03-05T14:40:01.832Z,98029.91
2024-03-05T14:45:03.634Z,98027.50
2024-03-05T14:50:06.302Z,98032.59
2024-03-05T14:55:13.720Z,98040.88
2024-03-05T15:00:17.324Z,98039.06
2024-03-05T15:05:20.284Z,98043.88
2024-03-05T15:10:22.997Z,98053.28
2024-03-05T15:15:25.268Z,98050.34
2024-03-05T15:20:26.934Z,98046.00
2024-03-05T15:25:28.663Z,98051.53
2024-03-05T15:30:33.126Z,98044.59
2024-03-05T15:35:36.352Z,98046.31
2024-03-05T15:40:39.018Z,98048.19
2024-03-05T15:45:41.747Z,98057.72
2024-03-05T15:50:45.861Z,98061.81
2024-03-05T15:55:47.897Z,98076.94
2024-03-05T16:00:49.773Z,98078.81
2024-03-05T16:06:00.028Z,98091.59
2024-03-05T16:11:08.559Z,98084.97
2024-03-05T16:16:10.773Z,98094.47
2024-03-05T16:21:14.339Z,98085.91
2024-03-05T16:26:16.913Z,98089.78
2024-03-05T16:31:18.577Z,98093.78
2024-03-05T16:36:20.512Z,98101.72
2024-03-05T16:41:22.329Z,98100.56
2024-03-05T16:46:25.139Z,98104.84
2024-03-05T16:51:26.791Z,98060.53
2024-03-05T16:56:28.436Z,98118.19
2024-03-05T17:01:30.143Z,98128.00
2024-03-05T17:06:33.125Z,98133.50
2024-03-05T17:11:35.179Z,98139.03
2024-03-05T17:16:47.107Z,98149.97
2024-03-05T17:21:50.641Z,98162.34
2024-03-05T17:26:52.354Z,98162.72
2024-03-05T17:31:55.775Z,98161.78
2024-03-05T17:36:57.585Z,98160.94
2024-03-05T17:42:00.019Z,98166.66
2024-03-05T17:47:01.795Z,98179.53
2024-03-05T17:52:03.758Z,98185.03
2024-03-05T17:57:07.482Z,98190.16
2024-03-05T18:02:09.580Z,98192.56
2024-03-05T18:07:11.241Z,98186.56
2024-03-05T18:12:15.786Z,98192.53
2024-03-05T18:17:17.863Z,98193.72
2024-03-05T18:22:19.755Z,98195.84
2024-03-05T18:27:22.685Z,98198.78
2024-03-05T18:32:26.536Z,98200.66
2024-03-05T18:37:28.204Z,98198.75
2024-03-05T18:42:29.884Z,98211.16
2024-03-05T18:47:31.572Z,98211.66
2024-03-05T18:52:33.608Z,98214.66
2024-03-05T18:57:35.291Z,98217.28
2024-03-05T19:02:36.916Z,98224.59
2024-03-05T19:07:38.674Z,98234.06
2024-03-05T19:12:41.123Z,98236.25
2024-03-05T19:17:43.918Z,98232.75
2024-03-05T19:22:45.590Z,98236.03
2024-03-05T19:27:47.253Z,98233.31
2024-03-05T19:32:49.824Z,98223.66
2024-03-05T19:37:51.569Z,98217.41
2024-03-05T19:42:59.338Z,98233.72
2024-03-05T19:48:01.069Z,98233.91
2024-03-05T19:53:03.703Z,98233.00
2024-03-05T19:58:05.590Z,98234.28
2024-03-05T20:03:07.202Z,98229.72
2024-03-05T20:08:09.263Z,98236.94
2024-03-05T20:13:11.093Z,98237.78
2024-03-05T20:18:12.765Z,98238.94
2024-03-05T20:23:14.530Z,98232.97
2024-03-05T20:28:16.520Z,98250.34
2024-03-05T20:33:18.251Z,98252.78
2024-03-05T20:38:19.866Z,98258.31
2024-03-05T20:43:21.503Z,98252.16
2024-03-05T20:48:23.104Z,98254.47
2024-03-05T20:53:24.839Z,98254.69
2024-03-05T20:58:26.474Z,98263.19
2024-03-05T21:03:31.536Z,98265.53
2024-03-05T21:08:33.243Z,98270.03
2024-03-05T21:13:42.731Z,98264.28
2024-03-05T21:18:44.636Z,98266.59
2024-03-05T21:23:46.245Z,98278.72
2024-03-05T21:28:47.918Z,98272.47
2024-03-05T21:33:50.246Z,98271.06
2024-03-05T21:38:51.872Z,98276.59
2024-03-05T21:43:53.590Z,98280.34
2024-03-05T21:48:55.443Z,98278.38
2024-03-05T21:53:57.876Z,98278.88
2024-03-05T21:58:59.500Z,98279.34
2024-03-05T22:04:01.152Z,98273.22
2024-03-05T22:09:10.127Z,98284.03
2024-03-05T22:14:12.891Z,98280.84
2024-03-05T22:19:14.626Z,98279.13
2024-03-05T22:24:16.878Z,98290.69
2024-03-05T22:29:18.647Z,98285.94
2024-03-05T22:34:20.284Z,98293.56
2024-03-05T22:39:22.228Z,98290.69
2024-03-05T22:44:24.828Z,98288.25
2024-03-05T22:49:26.472Z,98295.88
2024-03-05T22:54:28.690Z,98301.59
2024-03-05T22:59:31.270Z,98307.38
2024-03-05T23:04:33.841Z,98307.44
2024-03-05T23:09:35.890Z,98312.59
2024-03-05T23:14:37.802Z,98319.25
2024-03-05T23:19:41.727Z,98307.34
2024-03-05T23:24:44.667Z,98316.31
2024-03-05T23:29:47.162Z,98307.69
2024-03-05T23:34:48.792Z,98313.66
2024-03-05T23:39:50.455Z,98317.56
2024-03-05T23:44:53.573Z,98307.25
2024-03-05T23:49:55.203Z,98314.50
2024-03-05T23:55:00.135Z,98320.44
